PWSweather.com
Personal Weather Stations
Station Observations
IONTARIO88
Lincoln, ON L0R

Lincoln, ON L0R

Lat: 43.1763563, Lon: -79.4719525

Elevation: 297

Station Type: Davis Vantage Pro 2 Plus

http://www.beamsvillewx.ca

High Low Average
Temperature 30.2°F-1.0°C 17.8°F-7.9°C 24.9°F-3.9°C
Dew Point 24.3°F-4.3°C 12.1°F-11.1°C 17.7°F-7.9°C
Winds 9.0 mph 14.5 kmh 1.0 mph 1.6 kmh 5.0 mph W8.0 kmh W
Wind Gusts 16.0 mph25.7 kmh 3.0 mph4.8 kmh 10.0 mph16.1 kmh
Humidity 82% 59% 74%
Pressure 30.81 in1043.3 mb 30.15 in1021.0 mb -
Precipitation 0.00 in0.0 mm - -
Hour Temp Dew Point Humidity Winds Wind Gusts Pressure Precip Precip Rate Daily Precip Total
12:00 AM 30.0°F-1.1°C 25.8°F-3.4°C 84% 7.0 mph W11.3 kmh W 14.0 mph22.5 kmh 30.11 in1019.6 mb 0.00 in0.0 mm 0.00 in0.0 mm 0.26 in6.6 mm
12:15 AM 29.8°F-1.2°C 25.6°F-3.6°C 84% 6.0 mph WNW9.7 kmh WNW 15.0 mph24.1 kmh 30.12 in1020.0 mb 0.00 in0.0 mm 0.00 in0.0 mm 0.26 in6.6 mm
12:30 AM 29.7°F-1.3°C 25.4°F-3.7°C 84% 5.0 mph WNW8.0 kmh WNW 9.0 mph14.5 kmh 30.13 in1020.3 mb 0.00 in0.0 mm 0.00 in0.0 mm 0.26 in6.6 mm
12:45 AM 29.5°F-1.4°C 24.4°F-4.2°C 81% 9.0 mph W14.5 kmh W 15.0 mph24.1 kmh 30.14 in1020.7 mb 0.00 in0.0 mm 0.00 in0.0 mm 0.26 in6.6 mm
01:00 AM 29.1°F-1.6°C 24.0°F-4.4°C 81% 9.0 mph W14.5 kmh W 16.0 mph25.7 kmh 30.15 in1021.0 mb 0.00 in0.0 mm 0.00 in0.0 mm 0.00 in0.0 mm
01:15 AM 29.1°F-1.6°C 24.3°F-4.3°C 82% 7.0 mph W11.3 kmh W 14.0 mph22.5 kmh 30.16 in1021.3 mb 0.00 in0.0 mm 0.00 in0.0 mm 0.00 in0.0 mm
01:30 AM 29.1°F-1.6°C 24.3°F-4.3°C 82% 5.0 mph WNW8.0 kmh WNW 10.0 mph16.1 kmh 30.17 in1021.7 mb 0.00 in0.0 mm 0.00 in0.0 mm 0.00 in0.0 mm
01:45 AM 28.9°F-1.7°C 24.1°F-4.4°C 82% 7.0 mph W11.3 kmh W 15.0 mph24.1 kmh 30.19 in1022.4 mb 0.00 in0.0 mm 0.00 in0.0 mm 0.00 in0.0 mm
02:00 AM 28.9°F-1.7°C 24.1°F-4.4°C 82% 6.0 mph W9.7 kmh W 14.0 mph22.5 kmh 30.19 in1022.4 mb 0.00 in0.0 mm 0.00 in0.0 mm 0.00 in0.0 mm
02:15 AM 28.9°F-1.7°C 24.1°F-4.4°C 82% 6.0 mph W9.7 kmh W 12.0 mph19.3 kmh 30.20 in1022.7 mb 0.00 in0.0 mm 0.00 in0.0 mm 0.00 in0.0 mm
02:30 AM 28.9°F-1.7°C 24.1°F-4.4°C 82% 5.0 mph W8.0 kmh W 9.0 mph14.5 kmh 30.21 in1023.0 mb 0.00 in0.0 mm 0.00 in0.0 mm 0.00 in0.0 mm
02:45 AM 28.8°F-1.8°C 24.0°F-4.4°C 82% 5.0 mph W8.0 kmh W 13.0 mph20.9 kmh 30.22 in1023.4 mb 0.00 in0.0 mm 0.00 in0.0 mm 0.00 in0.0 mm
03:00 AM 28.8°F-1.8°C 23.7°F-4.6°C 81% 6.0 mph W9.7 kmh W 13.0 mph20.9 kmh 30.23 in1023.7 mb 0.00 in0.0 mm 0.00 in0.0 mm 0.00 in0.0 mm
03:15 AM 28.4°F-2.0°C 22.7°F-5.2°C 79% 7.0 mph WNW11.3 kmh WNW 14.0 mph22.5 kmh 30.24 in1024.0 mb 0.00 in0.0 mm 0.00 in0.0 mm 0.00 in0.0 mm
03:30 AM 28.2°F-2.1°C 22.8°F-5.1°C 80% 6.0 mph W9.7 kmh W 11.0 mph17.7 kmh 30.25 in1024.4 mb 0.00 in0.0 mm 0.00 in0.0 mm 0.00 in0.0 mm
03:45 AM 27.9°F-2.3°C 21.9°F-5.6°C 78% 7.0 mph W11.3 kmh W 16.0 mph25.7 kmh 30.27 in1025.1 mb 0.00 in0.0 mm 0.00 in0.0 mm 0.00 in0.0 mm
04:00 AM 27.5°F-2.5°C 21.5°F-5.8°C 78% 7.0 mph W11.3 kmh W 15.0 mph24.1 kmh 30.27 in1025.1 mb 0.00 in0.0 mm 0.00 in0.0 mm 0.00 in0.0 mm
04:15 AM 27.1°F-2.7°C 21.8°F-5.7°C 80% 4.0 mph WNW6.4 kmh WNW 7.0 mph11.3 kmh 30.28 in1025.4 mb 0.00 in0.0 mm 0.00 in0.0 mm 0.00 in0.0 mm
04:30 AM 27.0°F-2.8°C 21.6°F-5.8°C 80% 6.0 mph W9.7 kmh W 12.0 mph19.3 kmh 30.28 in1025.4 mb 0.00 in0.0 mm 0.00 in0.0 mm 0.00 in0.0 mm
04:45 AM 26.2°F-3.2°C 20.9°F-6.2°C 80% 6.0 mph W9.7 kmh W 15.0 mph24.1 kmh 30.29 in1025.7 mb 0.00 in0.0 mm 0.00 in0.0 mm 0.00 in0.0 mm
05:00 AM 25.9°F-3.4°C 20.9°F-6.2°C 81% 5.0 mph W8.0 kmh W 10.0 mph16.1 kmh 30.30 in1026.1 mb 0.00 in0.0 mm 0.00 in0.0 mm 0.00 in0.0 mm
05:15 AM 25.3°F-3.7°C 20.0°F-6.7°C 80% 6.0 mph W9.7 kmh W 10.0 mph16.1 kmh 30.30 in1026.1 mb 0.00 in0.0 mm 0.00 in0.0 mm 0.00 in0.0 mm
05:30 AM 24.8°F-4.0°C 19.5°F-6.9°C 80% 5.0 mph W8.0 kmh W 11.0 mph17.7 kmh 30.31 in1026.4 mb 0.00 in0.0 mm 0.00 in0.0 mm 0.00 in0.0 mm
05:45 AM 24.3°F-4.3°C 19.0°F-7.2°C 80% 5.0 mph W8.0 kmh W 14.0 mph22.5 kmh 30.32 in1026.8 mb 0.00 in0.0 mm 0.00 in0.0 mm 0.00 in0.0 mm
06:00 AM 23.7°F-4.6°C 18.7°F-7.4°C 81% 4.0 mph WSW6.4 kmh WSW 10.0 mph16.1 kmh 30.34 in1027.4 mb 0.00 in0.0 mm 0.00 in0.0 mm 0.00 in0.0 mm
06:15 AM 23.4°F-4.8°C 18.4°F-7.6°C 81% 5.0 mph W8.0 kmh W 9.0 mph14.5 kmh 30.36 in1028.1 mb 0.00 in0.0 mm 0.00 in0.0 mm 0.00 in0.0 mm
06:30 AM 22.8°F-5.1°C 17.9°F-7.8°C 81% 5.0 mph W8.0 kmh W 10.0 mph16.1 kmh 30.38 in1028.8 mb 0.00 in0.0 mm 0.00 in0.0 mm 0.00 in0.0 mm
06:45 AM 22.5°F-5.3°C 17.5°F-8.1°C 81% 4.0 mph W6.4 kmh W 9.0 mph14.5 kmh 30.39 in1029.1 mb 0.00 in0.0 mm 0.00 in0.0 mm 0.00 in0.0 mm
07:00 AM 22.1°F-5.5°C 17.2°F-8.2°C 81% 5.0 mph W8.0 kmh W 13.0 mph20.9 kmh 30.39 in1029.1 mb 0.00 in0.0 mm 0.00 in0.0 mm 0.00 in0.0 mm
07:15 AM 21.7°F-5.7°C 16.8°F-8.4°C 81% 4.0 mph WSW6.4 kmh WSW 8.0 mph12.9 kmh 30.40 in1029.5 mb 0.00 in0.0 mm 0.00 in0.0 mm 0.00 in0.0 mm
07:30 AM 21.4°F-5.9°C 16.5°F-8.6°C 81% 3.0 mph WSW4.8 kmh WSW 8.0 mph12.9 kmh 30.41 in1029.8 mb 0.00 in0.0 mm 0.00 in0.0 mm 0.00 in0.0 mm
07:45 AM 20.8°F-6.2°C 16.2°F-8.8°C 82% 3.0 mph WSW4.8 kmh WSW 6.0 mph9.7 kmh 30.41 in1029.8 mb 0.00 in0.0 mm 0.00 in0.0 mm 0.00 in0.0 mm
08:00 AM 20.8°F-6.2°C 16.2°F-8.8°C 82% 3.0 mph W4.8 kmh W 7.0 mph11.3 kmh 30.42 in1030.1 mb 0.00 in0.0 mm 0.00 in0.0 mm 0.00 in0.0 mm
08:15 AM 20.8°F-6.2°C 15.9°F-8.9°C 81% 2.0 mph W3.2 kmh W 6.0 mph9.7 kmh 30.43 in1030.5 mb 0.00 in0.0 mm 0.00 in0.0 mm 0.00 in0.0 mm
08:30 AM 20.5°F-6.4°C 15.9°F-8.9°C 82% 4.0 mph W6.4 kmh W 10.0 mph16.1 kmh 30.44 in1030.8 mb 0.00 in0.0 mm 0.00 in0.0 mm 0.00 in0.0 mm
08:45 AM 20.7°F-6.3°C 16.0°F-8.9°C 82% 4.0 mph WSW6.4 kmh WSW 10.0 mph16.1 kmh 30.46 in1031.5 mb 0.00 in0.0 mm 0.00 in0.0 mm 0.00 in0.0 mm
09:00 AM 20.7°F-6.3°C 15.8°F-9.0°C 81% 4.0 mph W6.4 kmh W 9.0 mph14.5 kmh 30.46 in1031.5 mb 0.00 in0.0 mm 0.00 in0.0 mm 0.00 in0.0 mm
09:15 AM 20.8°F-6.2°C 15.9°F-8.9°C 81% 4.0 mph WSW6.4 kmh WSW 11.0 mph17.7 kmh 30.47 in1031.8 mb 0.00 in0.0 mm 0.00 in0.0 mm 0.00 in0.0 mm
09:30 AM 21.7°F-5.7°C 16.2°F-8.8°C 79% 4.0 mph WSW6.4 kmh WSW 10.0 mph16.1 kmh 30.48 in1032.2 mb 0.00 in0.0 mm 0.00 in0.0 mm 0.00 in0.0 mm
09:45 AM 22.3°F-5.4°C 16.8°F-8.4°C 79% 5.0 mph WSW8.0 kmh WSW 11.0 mph17.7 kmh 30.50 in1032.8 mb 0.00 in0.0 mm 0.00 in0.0 mm 0.00 in0.0 mm
10:00 AM 22.6°F-5.2°C 16.5°F-8.6°C 77% 5.0 mph W8.0 kmh W 10.0 mph16.1 kmh 30.51 in1033.2 mb 0.00 in0.0 mm 0.00 in0.0 mm 0.00 in0.0 mm
10:15 AM 23.4°F-4.8°C 17.2°F-8.2°C 77% 5.0 mph W8.0 kmh W 11.0 mph17.7 kmh 30.52 in1033.5 mb 0.00 in0.0 mm 0.00 in0.0 mm 0.00 in0.0 mm
10:30 AM 23.7°F-4.6°C 17.6°F-8.0°C 77% 5.0 mph W8.0 kmh W 9.0 mph14.5 kmh 30.52 in1033.5 mb 0.00 in0.0 mm 0.00 in0.0 mm 0.00 in0.0 mm
10:45 AM 24.4°F-4.2°C 18.0°F-7.8°C 76% 5.0 mph W8.0 kmh W 11.0 mph17.7 kmh 30.53 in1033.9 mb 0.00 in0.0 mm 0.00 in0.0 mm 0.00 in0.0 mm
11:00 AM 25.0°F-3.9°C 18.5°F-7.5°C 76% 6.0 mph W9.7 kmh W 12.0 mph19.3 kmh 30.53 in1033.9 mb 0.00 in0.0 mm 0.00 in0.0 mm 0.00 in0.0 mm
11:15 AM 25.5°F-3.6°C 18.7°F-7.4°C 75% 7.0 mph W11.3 kmh W 11.0 mph17.7 kmh 30.54 in1034.2 mb 0.00 in0.0 mm 0.00 in0.0 mm 0.00 in0.0 mm
11:30 AM 26.2°F-3.2°C 19.4°F-7.0°C 75% 6.0 mph W9.7 kmh W 10.0 mph16.1 kmh 30.55 in1034.5 mb 0.00 in0.0 mm 0.00 in0.0 mm 0.00 in0.0 mm
11:45 AM 27.0°F-2.8°C 19.8°F-6.8°C 74% 6.0 mph WNW9.7 kmh WNW 10.0 mph16.1 kmh 30.55 in1034.5 mb 0.00 in0.0 mm 0.00 in0.0 mm 0.00 in0.0 mm
12:00 PM 27.9°F-2.3°C 20.6°F-6.3°C 74% 5.0 mph W8.0 kmh W 10.0 mph16.1 kmh 30.55 in1034.5 mb 0.00 in0.0 mm 0.00 in0.0 mm 0.00 in0.0 mm
12:15 PM 28.2°F-2.1°C 20.3°F-6.5°C 72% 6.0 mph W9.7 kmh W 12.0 mph19.3 kmh 30.56 in1034.9 mb 0.00 in0.0 mm 0.00 in0.0 mm 0.00 in0.0 mm
12:30 PM 28.8°F-1.8°C 20.9°F-6.2°C 72% 6.0 mph WNW9.7 kmh WNW 11.0 mph17.7 kmh 30.57 in1035.2 mb 0.00 in0.0 mm 0.00 in0.0 mm 0.00 in0.0 mm
12:45 PM 28.9°F-1.7°C 20.4°F-6.4°C 70% 7.0 mph WNW11.3 kmh WNW 14.0 mph22.5 kmh 30.57 in1035.2 mb 0.00 in0.0 mm 0.00 in0.0 mm 0.00 in0.0 mm
01:00 PM 28.6°F-1.9°C 19.0°F-7.2°C 67% 8.0 mph NW12.9 kmh NW 14.0 mph22.5 kmh 30.57 in1035.2 mb 0.00 in0.0 mm 0.00 in0.0 mm 0.00 in0.0 mm
01:15 PM 28.4°F-2.0°C 19.2°F-7.1°C 68% 8.0 mph NW12.9 kmh NW 13.0 mph20.9 kmh 30.58 in1035.6 mb 0.00 in0.0 mm 0.00 in0.0 mm 0.00 in0.0 mm
01:30 PM 28.8°F-1.8°C 18.8°F-7.3°C 66% 7.0 mph NW11.3 kmh NW 14.0 mph22.5 kmh 30.58 in1035.6 mb 0.00 in0.0 mm 0.00 in0.0 mm 0.00 in0.0 mm
01:45 PM 27.7°F-2.4°C 18.5°F-7.5°C 68% 6.0 mph NW9.7 kmh NW 12.0 mph19.3 kmh 30.58 in1035.6 mb 0.00 in0.0 mm 0.00 in0.0 mm 0.00 in0.0 mm
02:00 PM 27.3°F-2.6°C 18.1°F-7.7°C 68% 6.0 mph NW9.7 kmh NW 11.0 mph17.7 kmh 30.58 in1035.6 mb 0.00 in0.0 mm 0.00 in0.0 mm 0.00 in0.0 mm
02:15 PM 27.7°F-2.4°C 18.1°F-7.7°C 67% 6.0 mph NW9.7 kmh NW 10.0 mph16.1 kmh 30.58 in1035.6 mb 0.00 in0.0 mm 0.00 in0.0 mm 0.00 in0.0 mm
02:30 PM 28.6°F-1.9°C 19.0°F-7.2°C 67% 5.0 mph NW8.0 kmh NW 10.0 mph16.1 kmh 30.59 in1035.9 mb 0.00 in0.0 mm 0.00 in0.0 mm 0.00 in0.0 mm
02:45 PM 29.8°F-1.2°C 19.5°F-6.9°C 65% 5.0 mph WNW8.0 kmh WNW 11.0 mph17.7 kmh 30.60 in1036.2 mb 0.00 in0.0 mm 0.00 in0.0 mm 0.00 in0.0 mm
03:00 PM 30.2°F-1.0°C 17.6°F-8.0°C 59% 7.0 mph W11.3 kmh W 14.0 mph22.5 kmh 30.60 in1036.2 mb 0.00 in0.0 mm 0.00 in0.0 mm 0.00 in0.0 mm
03:15 PM 30.2°F-1.0°C 18.4°F-7.6°C 61% 6.0 mph W9.7 kmh W 11.0 mph17.7 kmh 30.60 in1036.2 mb 0.00 in0.0 mm 0.00 in0.0 mm 0.00 in0.0 mm
03:30 PM 29.1°F-1.6°C 17.0°F-8.3°C 60% 6.0 mph WNW9.7 kmh WNW 11.0 mph17.7 kmh 30.61 in1036.6 mb 0.00 in0.0 mm 0.00 in0.0 mm 0.00 in0.0 mm
03:45 PM 29.1°F-1.6°C 17.3°F-8.2°C 61% 5.0 mph WNW8.0 kmh WNW 10.0 mph16.1 kmh 30.61 in1036.6 mb 0.00 in0.0 mm 0.00 in0.0 mm 0.00 in0.0 mm
04:00 PM 28.6°F-1.9°C 17.6°F-8.0°C 63% 4.0 mph WNW6.4 kmh WNW 8.0 mph12.9 kmh 30.62 in1036.9 mb 0.00 in0.0 mm 0.00 in0.0 mm 0.00 in0.0 mm
04:15 PM 29.1°F-1.6°C 17.3°F-8.2°C 61% 6.0 mph WNW9.7 kmh WNW 13.0 mph20.9 kmh 30.63 in1037.3 mb 0.00 in0.0 mm 0.00 in0.0 mm 0.00 in0.0 mm
04:30 PM 28.2°F-2.1°C 16.9°F-8.4°C 62% 5.0 mph WNW8.0 kmh WNW 10.0 mph16.1 kmh 30.63 in1037.3 mb 0.00 in0.0 mm 0.00 in0.0 mm 0.00 in0.0 mm
04:45 PM 28.6°F-1.9°C 17.2°F-8.2°C 62% 5.0 mph NW8.0 kmh NW 9.0 mph14.5 kmh 30.63 in1037.3 mb 0.00 in0.0 mm 0.00 in0.0 mm 0.00 in0.0 mm
05:00 PM 28.2°F-2.1°C 16.1°F-8.8°C 60% 6.0 mph W9.7 kmh W 10.0 mph16.1 kmh 30.64 in1037.6 mb 0.00 in0.0 mm 0.00 in0.0 mm 0.00 in0.0 mm
05:15 PM 28.4°F-2.0°C 16.7°F-8.5°C 61% 7.0 mph W11.3 kmh W 12.0 mph19.3 kmh 30.65 in1037.9 mb 0.00 in0.0 mm 0.00 in0.0 mm 0.00 in0.0 mm
05:30 PM 27.9°F-2.3°C 16.9°F-8.4°C 63% 4.0 mph W6.4 kmh W 9.0 mph14.5 kmh 30.66 in1038.3 mb 0.00 in0.0 mm 0.00 in0.0 mm 0.00 in0.0 mm
05:45 PM 27.3°F-2.6°C 16.4°F-8.7°C 63% 3.0 mph W4.8 kmh W 7.0 mph11.3 kmh 30.67 in1038.6 mb 0.00 in0.0 mm 0.00 in0.0 mm 0.00 in0.0 mm
06:00 PM 27.3°F-2.6°C 17.1°F-8.3°C 65% 3.0 mph W4.8 kmh W 8.0 mph12.9 kmh 30.67 in1038.6 mb 0.00 in0.0 mm 0.00 in0.0 mm 0.00 in0.0 mm
06:15 PM 27.5°F-2.5°C 17.3°F-8.2°C 65% 4.0 mph W6.4 kmh W 10.0 mph16.1 kmh 30.68 in1038.9 mb 0.00 in0.0 mm 0.00 in0.0 mm 0.00 in0.0 mm
06:30 PM 26.6°F-3.0°C 16.8°F-8.4°C 66% 5.0 mph W8.0 kmh W 11.0 mph17.7 kmh 30.68 in1038.9 mb 0.00 in0.0 mm 0.00 in0.0 mm 0.00 in0.0 mm
06:45 PM 25.9°F-3.4°C 16.8°F-8.4°C 68% 4.0 mph W6.4 kmh W 9.0 mph14.5 kmh 30.69 in1039.3 mb 0.00 in0.0 mm 0.00 in0.0 mm 0.00 in0.0 mm
07:00 PM 25.5°F-3.6°C 16.8°F-8.4°C 69% 5.0 mph W8.0 kmh W 10.0 mph16.1 kmh 30.69 in1039.3 mb 0.00 in0.0 mm 0.00 in0.0 mm 0.00 in0.0 mm
07:15 PM 25.2°F-3.8°C 16.4°F-8.7°C 69% 4.0 mph W6.4 kmh W 10.0 mph16.1 kmh 30.70 in1039.6 mb 0.00 in0.0 mm 0.00 in0.0 mm 0.00 in0.0 mm
07:30 PM 24.8°F-4.0°C 16.4°F-8.7°C 70% 3.0 mph WSW4.8 kmh WSW 7.0 mph11.3 kmh 30.71 in1040.0 mb 0.00 in0.0 mm 0.00 in0.0 mm 0.00 in0.0 mm
07:45 PM 24.4°F-4.2°C 16.1°F-8.8°C 70% 3.0 mph WSW4.8 kmh WSW 9.0 mph14.5 kmh 30.71 in1040.0 mb 0.00 in0.0 mm 0.00 in0.0 mm 0.00 in0.0 mm
08:00 PM 23.7°F-4.6°C 15.7°F-9.1°C 71% 4.0 mph W6.4 kmh W 7.0 mph11.3 kmh 30.72 in1040.3 mb 0.00 in0.0 mm 0.00 in0.0 mm 0.00 in0.0 mm
08:15 PM 23.4°F-4.8°C 15.3°F-9.3°C 71% 4.0 mph WSW6.4 kmh WSW 9.0 mph14.5 kmh 30.73 in1040.6 mb 0.00 in0.0 mm 0.00 in0.0 mm 0.00 in0.0 mm
08:30 PM 22.6°F-5.2°C 15.0°F-9.4°C 72% 4.0 mph W6.4 kmh W 8.0 mph12.9 kmh 30.74 in1041.0 mb 0.00 in0.0 mm 0.00 in0.0 mm 0.00 in0.0 mm
08:45 PM 22.1°F-5.5°C 14.4°F-9.8°C 72% 4.0 mph W6.4 kmh W 8.0 mph12.9 kmh 30.74 in1041.0 mb 0.00 in0.0 mm 0.00 in0.0 mm 0.00 in0.0 mm
09:00 PM 21.6°F-5.8°C 13.9°F-10.1°C 72% 3.0 mph W4.8 kmh W 7.0 mph11.3 kmh 30.75 in1041.3 mb 0.00 in0.0 mm 0.00 in0.0 mm 0.00 in0.0 mm
09:15 PM 21.2°F-6.0°C 13.9°F-10.1°C 73% 3.0 mph W4.8 kmh W 7.0 mph11.3 kmh 30.75 in1041.3 mb 0.00 in0.0 mm 0.00 in0.0 mm 0.00 in0.0 mm
09:30 PM 20.8°F-6.2°C 13.5°F-10.3°C 73% 4.0 mph W6.4 kmh W 8.0 mph12.9 kmh 30.76 in1041.7 mb 0.00 in0.0 mm 0.00 in0.0 mm 0.00 in0.0 mm
09:45 PM 20.5°F-6.4°C 13.2°F-10.4°C 73% 4.0 mph W6.4 kmh W 8.0 mph12.9 kmh 30.77 in1042.0 mb 0.00 in0.0 mm 0.00 in0.0 mm 0.00 in0.0 mm
10:00 PM 20.3°F-6.5°C 13.0°F-10.6°C 73% 3.0 mph WNW4.8 kmh WNW 7.0 mph11.3 kmh 30.77 in1042.0 mb 0.00 in0.0 mm 0.00 in0.0 mm 0.00 in0.0 mm
10:15 PM 19.9°F-6.7°C 13.0°F-10.6°C 74% 2.0 mph W3.2 kmh W 7.0 mph11.3 kmh 30.77 in1042.0 mb 0.00 in0.0 mm 0.00 in0.0 mm 0.00 in0.0 mm
10:30 PM 19.6°F-6.9°C 12.9°F-10.6°C 75% 3.0 mph W4.8 kmh W 7.0 mph11.3 kmh 30.78 in1042.3 mb 0.00 in0.0 mm 0.00 in0.0 mm 0.00 in0.0 mm
10:45 PM 19.4°F-7.0°C 12.5°F-10.8°C 74% 2.0 mph W3.2 kmh W 7.0 mph11.3 kmh 30.78 in1042.3 mb 0.00 in0.0 mm 0.00 in0.0 mm 0.00 in0.0 mm
11:00 PM 19.2°F-7.1°C 12.6°F-10.8°C 75% 2.0 mph W3.2 kmh W 5.0 mph8.0 kmh 30.79 in1042.7 mb 0.00 in0.0 mm 0.00 in0.0 mm 0.00 in0.0 mm
11:15 PM 18.9°F-7.3°C 12.5°F-10.8°C 76% 2.0 mph W3.2 kmh W 6.0 mph9.7 kmh 30.79 in1042.7 mb 0.00 in0.0 mm 0.00 in0.0 mm 0.00 in0.0 mm
11:30 PM 18.5°F-7.5°C 12.2°F-11.0°C 76% 2.0 mph W3.2 kmh W 4.0 mph6.4 kmh 30.79 in1042.7 mb 0.00 in0.0 mm 0.00 in0.0 mm 0.00 in0.0 mm
11:45 PM 18.1°F-7.7°C 12.1°F-11.1°C 77% 2.0 mph W3.2 kmh W 4.0 mph6.4 kmh 30.79 in1042.7 mb 0.00 in0.0 mm 0.00 in0.0 mm 0.00 in0.0 mm